Time;durP1;ratioP1;P1;durP2;ratioP2;P2;SDS_P1;SDS_P2;PMS_P1;PMS_P2;Temp;Humidity;BMP_temperature;BMP_pressure;BME280_temperature;BME280_humidity;BME280_pressure;Samples;Min_cycle;Max_cycle;Signal;HPM_P1;HPM_P2
2023/07/20 00:00:42;;;;;;;6.40;3.80;;;;;;;17.00;100.00;93047.97;2534500;23;20348;-80
2023/07/20 00:01:55;;;;;;;6.82;3.88;;;;;;;16.78;100.00;93052.88;2523811;23;20006;-80
2023/07/20 00:03:25;;;;;;;7.18;3.92;;;;;;;16.75;100.00;93051.06;2523080;23;20009;-82
2023/07/20 00:04:35;;;;;;;5.78;3.63;;;;;;;16.57;100.00;93052.63;2522623;23;20039;-83
2023/07/20 00:05:46;;;;;;;7.38;3.78;;;;;;;16.46;100.00;93052.38;2526452;23;20081;-80
2023/07/20 00:07:00;;;;;;;6.85;4.03;;;;;;;16.30;100.00;93042.66;2534054;23;20068;-80
2023/07/20 00:08:08;;;;;;;6.38;3.92;;;;;;;16.32;100.00;93050.28;2513775;23;20053;-82
2023/07/20 00:09:17;;;;;;;6.10;4.00;;;;;;;16.30;100.00;93047.31;2513696;23;20307;-83
2023/07/20 00:10:30;;;;;;;8.52;4.18;;;;;;;16.57;100.00;93051.88;2524108;23;20062;-82
2023/07/20 00:11:41;;;;;;;8.20;4.43;;;;;;;16.79;100.00;93052.41;2524347;23;20058;-83
2023/07/20 00:12:53;;;;;;;10.00;3.92;;;;;;;16.57;100.00;93046.47;2512351;23;20013;-81
2023/07/20 00:14:04;;;;;;;6.07;4.13;;;;;;;16.38;100.00;93045.78;2514673;23;20010;-81
2023/07/20 00:15:33;;;;;;;9.35;3.80;;;;;;;16.17;100.00;93047.47;2524058;23;20006;-83
2023/07/20 00:16:43;;;;;;;9.50;3.95;;;;;;;16.11;100.00;93046.59;2530084;23;20005;-79
2023/07/20 00:17:54;;;;;;;8.13;4.10;;;;;;;16.21;100.00;93052.72;2534520;23;20002;-80
2023/07/20 00:19:06;;;;;;;7.78;4.20;;;;;;;16.17;100.00;93049.44;2512413;23;20085;-85
2023/07/20 00:20:16;;;;;;;5.15;4.13;;;;;;;16.01;100.00;93053.94;2516193;23;20003;-83
2023/07/20 00:21:29;;;;;;;11.73;4.25;;;;;;;16.03;100.00;93059.66;2536898;23;20012;-80
2023/07/20 00:22:35;;;;;;;10.15;3.97;;;;;;;16.00;100.00;93046.31;2522593;23;20006;-80
2023/07/20 00:23:43;;;;;;;12.45;4.38;;;;;;;16.03;100.00;93058.91;2512503;23;20011;-81
2023/07/20 00:24:53;;;;;;;8.65;4.15;;;;;;;16.03;100.00;93062.34;2511834;23;20003;-81
2023/07/20 00:26:02;;;;;;;4.80;3.88;;;;;;;16.02;100.00;93057.38;2501751;23;20007;-81
2023/07/20 00:27:10;;;;;;;8.23;3.92;;;;;;;15.96;100.00;93059.19;2514435;23;20022;-81
2023/07/20 00:28:21;;;;;;;7.25;4.57;;;;;;;15.95;100.00;93050.38;2523502;23;20006;-82
2023/07/20 00:29:35;;;;;;;9.95;4.03;;;;;;;15.85;100.00;93049.63;2536719;23;20006;-84
2023/07/20 00:30:47;;;;;;;9.65;4.05;;;;;;;15.67;100.00;93052.34;2521682;23;20029;-80
2023/07/20 00:31:52;;;;;;;10.00;4.28;;;;;;;15.77;100.00;93059.22;2502234;23;20397;-81
2023/07/20 00:33:00;;;;;;;7.20;4.32;;;;;;;15.77;100.00;93045.75;2523184;23;20006;-82
2023/07/20 00:34:06;;;;;;;6.70;4.30;;;;;;;15.66;100.00;93060.84;2534170;23;20024;-83
2023/07/20 00:35:15;;;;;;;7.65;4.32;;;;;;;15.58;100.00;93055.75;2523135;23;20030;-81
2023/07/20 00:36:26;;;;;;;5.88;4.32;;;;;;;15.71;100.00;93055.59;2524098;23;20007;-83
2023/07/20 00:37:35;;;;;;;7.80;4.57;;;;;;;15.75;100.00;93058.91;2524235;23;20796;-81
2023/07/20 00:38:46;;;;;;;8.18;4.03;;;;;;;15.74;100.00;93062.06;2537069;23;20006;-80
2023/07/20 00:39:54;;;;;;;;;;;;;;;15.78;100.00;93062.66;2547069;23;20008;-82
2023/07/20 00:41:04;;;;;;;11.60;4.57;;;;;;;15.60;100.00;93061.44;2534135;23;19904;-80
2023/07/20 00:42:12;;;;;;;10.88;4.63;;;;;;;15.72;100.00;93059.81;2524110;23;20010;-81
2023/07/20 00:43:23;;;;;;;7.40;3.65;;;;;;;15.72;100.00;93061.78;2523643;23;20029;-83
2023/07/20 00:44:35;;;;;;;9.07;4.07;;;;;;;15.68;100.00;93064.63;2511974;23;20003;-80
2023/07/20 00:45:45;;;;;;;10.32;4.40;;;;;;;15.73;100.00;93065.97;2514240;23;20517;-82
2023/07/20 00:46:56;;;;;;;6.05;4.05;;;;;;;15.80;100.00;93055.63;2511612;23;20010;-81
2023/07/20 00:48:06;;;;;;;8.30;4.10;;;;;;;15.68;100.00;93064.63;2502189;23;20038;-79
2023/07/20 00:49:14;;;;;;;7.88;4.13;;;;;;;15.78;100.00;93057.28;2522261;23;20118;-80
2023/07/20 00:50:44;;;;;;;5.68;3.95;;;;;;;15.80;100.00;93054.84;2546241;23;19998;-82
2023/07/20 00:51:55;;;;;;;9.03;4.40;;;;;;;15.76;100.00;93054.25;2545823;23;20012;-83
2023/07/20 00:53:05;;;;;;;11.13;4.57;;;;;;;15.62;100.00;93050.19;2546768;23;20711;-79
2023/07/20 00:54:13;;;;;;;5.03;4.22;;;;;;;15.62;100.00;93044.81;2521804;23;20102;-83
2023/07/20 00:55:24;;;;;;;8.70;4.22;;;;;;;15.56;100.00;93052.00;2518876;23;19999;-81
2023/07/20 00:56:29;;;;;;;;;;;;;;;15.44;100.00;93050.94;2530661;23;19994;-80
2023/07/20 00:57:37;;;;;;;7.18;4.50;;;;;;;15.41;100.00;93056.47;2516239;23;19949;-81
2023/07/20 00:58:47;;;;;;;7.80;4.45;;;;;;;15.34;100.00;93049.44;2527301;23;20405;-80
2023/07/20 00:59:58;;;;;;;7.05;4.45;;;;;;;15.38;100.00;93055.44;2523175;23;20326;-85
2023/07/20 01:01:09;;;;;;;6.82;3.95;;;;;;;15.39;100.00;93048.09;2526936;23;20325;-82
2023/07/20 01:02:21;;;;;;;5.85;4.38;;;;;;;15.33;100.00;93045.25;2534529;23;20006;-81
2023/07/20 01:03:31;;;;;;;7.03;4.38;;;;;;;15.32;100.00;93051.81;2512819;23;20018;-81
2023/07/20 01:04:41;;;;;;;9.38;4.30;;;;;;;15.33;100.00;93046.00;2513465;23;20023;-81
2023/07/20 01:05:47;;;;;;;8.48;4.40;;;;;;;15.22;100.00;93050.31;2535520;23;20010;-83
2023/07/20 01:07:23;;;;;;;8.52;4.22;;;;;;;15.23;100.00;93046.41;2528094;23;20018;-81
2023/07/20 01:08:45;;;;;;;9.05;4.57;;;;;;;15.15;100.00;93045.25;2523930;23;20094;-82
2023/07/20 01:10:16;;;;;;;7.72;4.45;;;;;;;15.04;100.00;93045.66;2528143;23;20002;-81
2023/07/20 01:11:38;;;;;;;8.93;4.40;;;;;;;14.99;100.00;93044.28;2539904;23;20470;-81
2023/07/20 01:12:56;;;;;;;6.80;3.92;;;;;;;15.19;100.00;93037.75;2522218;23;20045;-80
2023/07/20 01:14:08;;;;;;;9.98;4.32;;;;;;;15.19;100.00;93037.75;2505240;23;20080;-81
2023/07/20 01:15:20;;;;;;;9.50;4.43;;;;;;;15.19;100.00;93035.81;2514943;23;20450;-83
2023/07/20 01:16:31;;;;;;;11.75;4.60;;;;;;;15.24;100.00;93037.16;2535521;23;20081;-80
2023/07/20 01:17:42;;;;;;;8.93;4.35;;;;;;;15.22;100.00;93036.84;2537557;23;20073;-81
2023/07/20 01:18:54;;;;;;;7.85;4.03;;;;;;;15.15;100.00;93039.84;2524517;23;20412;-84
2023/07/20 01:20:07;;;;;;;10.00;4.72;;;;;;;15.13;100.00;93037.59;2524380;23;20010;-80
2023/07/20 01:21:33;;;;;;;7.50;4.45;;;;;;;15.13;100.00;93039.53;2536698;23;20005;-81
2023/07/20 01:23:04;;;;;;;10.38;4.70;;;;;;;15.10;100.00;93038.47;2534465;23;20435;-81
2023/07/20 01:24:34;;;;;;;6.93;4.32;;;;;;;15.05;100.00;93039.06;2540954;23;20081;-81
2023/07/20 01:26:12;;;;;;;8.25;4.80;;;;;;;15.10;100.00;93035.78;2534242;23;20611;-81
2023/07/20 01:27:58;;;;;;;12.30;4.32;;;;;;;15.17;100.00;93038.19;2529268;23;20016;-81
2023/07/20 01:29:27;;;;;;;6.57;4.53;;;;;;;15.44;100.00;93029.38;2485261;23;20019;-81
2023/07/20 01:30:49;;;;;;;;;;;;;;;15.25;100.00;93025.94;2484169;23;20535;-81
2023/07/20 01:32:03;;;;;;;6.70;4.95;;;;;;;15.20;100.00;93031.19;2538315;23;19905;-80
2023/07/20 01:33:14;;;;;;;5.38;4.05;;;;;;;15.15;100.00;93034.47;2533487;23;20013;-84
2023/07/20 01:34:25;;;;;;;7.15;4.35;;;;;;;15.08;100.00;93040.88;2535959;23;20344;-83
2023/07/20 01:35:35;;;;;;;11.45;4.43;;;;;;;15.06;100.00;93037.88;2535022;23;20570;-81
2023/07/20 01:36:43;;;;;;;;;;;;;;;15.19;100.00;93038.50;2538063;23;20006;-83
2023/07/20 01:37:57;;;;;;;7.35;4.50;;;;;;;15.15;100.00;93040.59;2524361;23;20011;-81
2023/07/20 01:39:22;;;;;;;6.32;4.35;;;;;;;15.06;100.00;93033.25;2520538;23;20011;-81
2023/07/20 01:40:31;;;;;;;11.90;4.90;;;;;;;15.09;100.00;93032.34;2527415;23;20061;-81
2023/07/20 01:41:42;;;;;;;7.65;4.47;;;;;;;15.10;100.00;93028.47;2523562;23;20449;-81
2023/07/20 01:42:56;;;;;;;8.82;4.88;;;;;;;15.10;100.00;93028.47;2523802;23;20006;-81
2023/07/20 01:44:06;;;;;;;8.80;4.15;;;;;;;15.27;100.00;93028.91;2526507;23;20014;-79
2023/07/20 01:45:33;;;;;;;8.35;4.57;;;;;;;15.17;100.00;93027.44;2523207;23;20476;-82
2023/07/20 01:46:41;;;;;;;7.95;4.38;;;;;;;15.31;100.00;93023.41;2520413;23;20013;-82
2023/07/20 01:47:53;;;;;;;8.27;4.57;;;;;;;15.24;100.00;93019.06;2534995;23;20073;-81
2023/07/20 01:49:03;;;;;;;7.78;4.78;;;;;;;15.37;100.00;93032.41;2521356;23;20006;-82
2023/07/20 01:50:13;;;;;;;7.10;4.47;;;;;;;15.25;100.00;93027.88;2511484;23;20017;-83
2023/07/20 01:51:22;;;;;;;10.65;4.75;;;;;;;15.06;100.00;93024.44;2514162;23;20034;-83
2023/07/20 01:52:30;;;;;;;8.18;4.55;;;;;;;15.07;100.00;93026.66;2535402;23;20010;-82
2023/07/20 01:53:38;;;;;;;9.25;5.22;;;;;;;15.16;100.00;93027.88;2521635;23;20440;-83
2023/07/20 01:54:49;;;;;;;11.55;4.55;;;;;;;15.02;100.00;93018.44;2501129;23;20071;-82
2023/07/20 01:56:01;;;;;;;11.55;5.15;;;;;;;15.15;100.00;93027.13;2523746;23;20021;-81
2023/07/20 01:57:21;;;;;;;12.48;4.28;;;;;;;15.12;100.00;93017.25;2524538;23;20084;-81
2023/07/20 01:58:29;;;;;;;11.90;5.10;;;;;;;15.04;100.00;93024.13;2525284;23;20006;-81
2023/07/20 01:59:38;;;;;;;11.68;4.65;;;;;;;14.92;100.00;93014.97;2535386;23;20022;-82
2023/07/20 02:01:04;;;;;;;11.88;5.20;;;;;;;14.95;100.00;93022.16;2533940;23;20005;-83
2023/07/20 02:02:11;;;;;;;6.80;4.32;;;;;;;15.02;100.00;93023.81;2546214;23;20414;-83
2023/07/20 02:03:26;;;;;;;7.95;4.50;;;;;;;14.89;100.00;93017.81;2526711;23;20002;-80
2023/07/20 02:04:37;;;;;;;10.02;4.90;;;;;;;14.94;100.00;93017.97;2502508;23;20538;-83
2023/07/20 02:05:49;;;;;;;9.20;4.55;;;;;;;14.87;100.00;93015.56;2525675;23;20440;-80
2023/07/20 02:07:00;;;;;;;5.88;4.32;;;;;;;14.59;100.00;93014.72;2521795;23;20040;-80
2023/07/20 02:08:11;;;;;;;7.95;4.32;;;;;;;14.61;100.00;93010.38;2502189;23;20074;-81
2023/07/20 02:09:21;;;;;;;6.25;4.55;;;;;;;14.43;100.00;93006.88;2516265;23;20085;-81
2023/07/20 02:10:33;;;;;;;7.35;4.38;;;;;;;14.42;100.00;93011.50;2515836;23;20006;-81
2023/07/20 02:11:44;;;;;;;7.45;4.57;;;;;;;14.69;100.00;93020.88;2527859;23;20065;-82
2023/07/20 02:13:07;;;;;;;12.43;4.18;;;;;;;14.69;100.00;93018.94;2535767;23;20012;-82
2023/07/20 02:14:18;;;;;;;6.53;4.20;;;;;;;14.73;100.00;93019.56;2527097;23;20010;-81
2023/07/20 02:15:47;;;;;;;7.78;4.65;;;;;;;14.64;100.00;93018.78;2536909;23;20081;-82
2023/07/20 02:16:57;;;;;;;7.25;4.82;;;;;;;14.61;100.00;93012.34;2550810;23;20036;-81
2023/07/20 02:18:11;;;;;;;7.03;4.40;;;;;;;14.44;100.00;93011.78;2521226;23;20488;-81
2023/07/20 02:19:38;;;;;;;7.50;4.70;;;;;;;14.47;100.00;93010.91;2503863;23;20628;-83
2023/07/20 02:20:49;;;;;;;9.27;5.63;;;;;;;14.20;100.00;93018.88;2507258;23;20031;-80
2023/07/20 02:21:54;;;;;;;5.47;4.18;;;;;;;14.21;100.00;93017.69;2515796;23;20434;-83
2023/07/20 02:23:05;;;;;;;13.70;4.90;;;;;;;14.19;100.00;93017.38;2524015;23;20003;-83
2023/07/20 02:24:13;;;;;;;10.80;4.57;;;;;;;14.30;100.00;93017.72;2524337;23;20089;-82
2023/07/20 02:25:23;;;;;;;8.95;4.50;;;;;;;14.36;100.00;93011.34;2523900;23;20018;-82
2023/07/20 02:26:42;;;;;;;8.23;4.65;;;;;;;14.41;100.00;93014.66;2524291;23;20406;-81
2023/07/20 02:27:53;;;;;;;7.47;4.50;;;;;;;14.35;100.00;93014.44;2526010;23;20006;-82
2023/07/20 02:29:08;;;;;;;11.65;4.88;;;;;;;14.34;100.00;93013.72;2521176;23;20018;-84
2023/07/20 02:30:15;;;;;;;8.25;4.47;;;;;;;14.23;100.00;93012.63;2525584;23;20053;-84
2023/07/20 02:31:26;;;;;;;6.15;4.57;;;;;;;14.15;100.00;93014.81;2512405;23;20089;-80
2023/07/20 02:32:36;;;;;;;9.50;5.05;;;;;;;14.20;100.00;93022.31;2505049;23;20007;-81
2023/07/20 02:33:42;;;;;;;;;;;;;;;14.14;100.00;93017.97;2514671;23;20003;-80
2023/07/20 02:34:54;;;;;;;10.93;4.70;;;;;;;14.28;100.00;93022.81;2534147;23;20312;-82
2023/07/20 02:36:03;;;;;;;7.80;4.40;;;;;;;14.09;100.00;93016.56;2536081;23;20065;-83
2023/07/20 02:37:27;;;;;;;7.18;4.25;;;;;;;14.22;100.00;93014.53;2532243;23;20088;-81
2023/07/20 02:38:41;;;;;;;8.45;5.10;;;;;;;14.08;100.00;93018.50;2511265;23;20010;-81
2023/07/20 02:39:49;;;;;;;10.65;5.22;;;;;;;14.07;100.00;93017.00;2515108;23;20054;-80
2023/07/20 02:41:00;;;;;;;8.60;5.00;;;;;;;14.00;100.00;93014.56;2535522;23;20321;-80
2023/07/20 02:42:10;;;;;;;8.60;4.70;;;;;;;13.99;100.00;93017.72;2534626;23;20008;-83
2023/07/20 02:43:26;;;;;;;;;;;;;;;14.00;100.00;93013.84;2524709;23;20006;-82
2023/07/20 02:44:32;;;;;;;6.13;4.22;;;;;;;13.94;100.00;93020.97;2513122;23;20050;-81
2023/07/20 02:45:44;;;;;;;7.00;4.35;;;;;;;13.90;100.00;93012.28;2524351;23;20496;-84
2023/07/20 02:46:54;;;;;;;5.75;4.20;;;;;;;13.91;100.00;93016.47;2521437;23;20006;-81
2023/07/20 02:48:07;;;;;;;7.45;4.22;;;;;;;13.75;100.00;93017.44;2525352;23;20124;-80
2023/07/20 02:49:32;;;;;;;6.07;4.32;;;;;;;13.74;100.00;93016.69;2544234;23;20068;-80
2023/07/20 02:50:44;;;;;;;7.55;4.63;;;;;;;13.76;100.00;93021.59;2534803;23;20013;-81
2023/07/20 02:51:54;;;;;;;6.50;4.50;;;;;;;13.72;100.00;93019.03;2538309;23;20057;-81
2023/07/20 02:53:03;;;;;;;8.40;5.00;;;;;;;13.73;100.00;93019.78;2522129;23;20036;-81
2023/07/20 02:54:05;;;;;;;6.75;4.60;;;;;;;13.56;100.00;93017.31;2501111;23;20092;-82
2023/07/20 02:55:15;;;;;;;7.63;4.47;;;;;;;13.46;100.00;93026.47;2498240;23;20003;-82
2023/07/20 02:56:20;;;;;;;;;;;;;;;13.40;100.00;93022.84;2501748;23;20022;-82
2023/07/20 02:57:27;;;;;;;7.43;4.78;;;;;;;13.59;100.00;93026.41;2511498;23;19980;-83
2023/07/20 02:58:38;;;;;;;9.15;4.65;;;;;;;13.55;100.00;93023.84;2522348;23;20007;-83
2023/07/20 02:59:50;;;;;;;12.27;4.45;;;;;;;13.46;100.00;93023.03;2523491;23;20066;-81
2023/07/20 03:00:59;;;;;;;7.15;4.30;;;;;;;13.44;100.00;93022.72;2522509;23;19991;-79
2023/07/20 03:02:10;;;;;;;12.45;5.05;;;;;;;13.37;100.00;93029.06;2519710;23;20006;-82
2023/07/20 03:03:20;;;;;;;9.35;4.93;;;;;;;13.59;100.00;93023.72;2530932;23;20022;-80
2023/07/20 03:04:31;;;;;;;11.10;4.93;;;;;;;13.44;100.00;93028.84;2538842;23;20031;-84
2023/07/20 03:05:33;;;;;;;12.00;4.90;;;;;;;13.37;100.00;93021.03;2515392;23;20018;-81
2023/07/20 03:06:42;;;;;;;9.95;5.07;;;;;;;13.45;100.00;93021.53;2524388;23;20002;-81
2023/07/20 03:07:51;;;;;;;9.98;5.13;;;;;;;13.50;100.00;93020.97;2522486;23;20216;-81
2023/07/20 03:08:56;;;;;;;9.25;4.80;;;;;;;13.50;100.00;93024.41;2501985;23;20320;-81
2023/07/20 03:10:00;;;;;;;8.32;4.47;;;;;;;13.31;100.00;93020.09;2512253;23;20030;-82
2023/07/20 03:11:09;;;;;;;8.82;5.10;;;;;;;13.26;100.00;93023.34;2535215;23;20009;-81
2023/07/20 03:12:16;;;;;;;7.57;4.93;;;;;;;13.34;100.00;93024.56;2522469;23;20050;-81
2023/07/20 03:13:24;;;;;;;10.05;4.97;;;;;;;13.37;100.00;93018.34;2501771;23;20007;-80
2023/07/20 03:14:28;;;;;;;8.45;4.68;;;;;;;13.29;100.00;93017.81;2513369;23;20010;-82
2023/07/20 03:15:31;;;;;;;10.68;4.78;;;;;;;13.22;100.00;93022.66;2535388;23;20005;-81
2023/07/20 03:16:43;;;;;;;6.18;3.88;;;;;;;13.26;100.00;93028.69;2534367;23;20409;-81
2023/07/20 03:17:51;;;;;;;11.32;4.38;;;;;;;13.30;100.00;93022.03;2537583;23;20460;-81
2023/07/20 03:19:03;;;;;;;8.18;4.43;;;;;;;13.28;100.00;93018.25;2535238;23;20028;-80
2023/07/20 03:20:13;;;;;;;6.28;4.78;;;;;;;13.24;100.00;93020.31;2513254;23;20010;-82
2023/07/20 03:21:16;;;;;;;6.35;4.32;;;;;;;13.30;100.00;93022.03;2502379;23;20007;-83
2023/07/20 03:22:27;;;;;;;7.90;4.38;;;;;;;13.29;100.00;93025.13;2524066;23;20033;-81
2023/07/20 03:23:34;;;;;;;5.75;4.50;;;;;;;13.31;100.00;93022.78;2523074;23;20062;-83
2023/07/20 03:24:45;;;;;;;9.77;4.93;;;;;;;13.29;100.00;93017.06;2513001;23;20472;-80
2023/07/20 03:25:56;;;;;;;11.32;4.57;;;;;;;13.37;100.00;93020.28;2512567;23;20779;-82
2023/07/20 03:27:07;;;;;;;10.05;4.18;;;;;;;13.15;100.00;93012.91;2502728;23;20003;-80
2023/07/20 03:28:15;;;;;;;7.95;4.80;;;;;;;13.09;100.00;93023.44;2526012;23;20013;-82
2023/07/20 03:29:19;;;;;;;8.25;4.25;;;;;;;13.11;100.00;93025.69;2547296;23;20076;-82
2023/07/20 03:30:25;;;;;;;8.25;4.75;;;;;;;13.11;100.00;93023.75;2534285;23;20016;-82
2023/07/20 03:31:35;;;;;;;7.63;5.05;;;;;;;13.16;100.00;93035.13;2522962;23;20007;-83
2023/07/20 03:32:43;;;;;;;10.15;4.75;;;;;;;13.18;100.00;93017.41;2524586;23;20073;-81
2023/07/20 03:33:53;;;;;;;9.10;4.60;;;;;;;13.21;100.00;93024.56;2524435;23;20085;-81
2023/07/20 03:35:06;;;;;;;6.63;4.75;;;;;;;13.23;100.00;93032.25;2524166;23;20097;-83
2023/07/20 03:36:11;;;;;;;11.02;4.85;;;;;;;13.27;100.00;93025.56;2524494;23;20002;-81
2023/07/20 03:37:21;;;;;;;8.07;5.03;;;;;;;13.21;100.00;93019.22;2521842;23;20085;-83
2023/07/20 03:38:36;;;;;;;8.98;4.53;;;;;;;13.16;100.00;93025.13;2525819;23;20229;-82
2023/07/20 03:39:50;;;;;;;8.20;4.75;;;;;;;13.26;100.00;93031.38;2534701;23;20017;-81
2023/07/20 03:41:04;;;;;;;5.43;4.45;;;;;;;13.19;100.00;93037.69;2512924;23;20418;-81
2023/07/20 03:42:15;;;;;;;10.27;5.18;;;;;;;13.10;100.00;93033.00;2515471;23;20330;-81
2023/07/20 03:43:25;;;;;;;10.05;4.70;;;;;;;13.29;100.00;93039.28;2534109;23;20089;-80
2023/07/20 03:44:37;;;;;;;7.82;4.93;;;;;;;13.33;100.00;93031.13;2512451;23;20073;-82
2023/07/20 03:45:47;;;;;;;8.15;4.80;;;;;;;13.27;100.00;93022.88;2503658;23;20093;-82
2023/07/20 03:46:54;;;;;;;7.47;4.72;;;;;;;13.20;100.00;93027.72;2514164;23;20011;-83
2023/07/20 03:48:05;;;;;;;10.38;4.50;;;;;;;13.25;100.00;93027.19;2536099;23;20436;-84
2023/07/20 03:49:12;;;;;;;9.50;4.97;;;;;;;13.17;100.00;93028.56;2534747;23;20432;-80
2023/07/20 03:50:22;;;;;;;7.40;5.07;;;;;;;13.14;100.00;93032.88;2523745;23;20003;-81
2023/07/20 03:51:27;;;;;;;;;;;;;;;13.19;100.00;93035.00;2538069;23;20006;-81
2023/07/20 03:52:33;;;;;;;7.65;5.18;;;;;;;13.13;100.00;93033.31;2534259;23;20247;-80
2023/07/20 03:53:42;;;;;;;6.20;4.70;;;;;;;13.08;100.00;93037.28;2535342;23;20002;-80
2023/07/20 03:54:48;;;;;;;9.18;4.63;;;;;;;13.12;100.00;93029.88;2534542;23;20441;-82
2023/07/20 03:55:58;;;;;;;11.18;5.13;;;;;;;13.14;100.00;93032.13;2523442;23;20010;-83
2023/07/20 03:57:09;;;;;;;11.77;4.50;;;;;;;13.22;100.00;93025.34;2536726;23;20653;-80
2023/07/20 03:58:18;;;;;;;8.07;5.18;;;;;;;13.25;100.00;93030.59;2522231;23;20025;-79
2023/07/20 03:59:30;;;;;;;6.53;4.57;;;;;;;13.22;100.00;93036.09;2526708;23;20099;-83
2023/07/20 04:00:46;;;;;;;9.20;4.60;;;;;;;13.29;100.00;93028.56;2535418;23;20002;-81
2023/07/20 04:01:56;;;;;;;8.70;5.15;;;;;;;13.39;100.00;93037.47;2526074;23;20441;-80
2023/07/20 04:03:03;;;;;;;10.90;5.07;;;;;;;13.38;100.00;93037.88;2524637;23;20746;-81
2023/07/20 04:04:16;;;;;;;9.82;5.03;;;;;;;13.36;100.00;93035.63;2524061;23;20008;-81
2023/07/20 04:05:27;;;;;;;7.22;5.25;;;;;;;13.31;100.00;93036.94;2524608;23;20026;-83
2023/07/20 04:06:34;;;;;;;10.85;5.15;;;;;;;13.29;100.00;93035.88;2523966;23;20007;-82
2023/07/20 04:07:40;;;;;;;7.85;4.95;;;;;;;13.38;100.00;93035.94;2511897;23;20046;-82
2023/07/20 04:08:51;;;;;;;10.40;4.45;;;;;;;13.40;100.00;93033.59;2511792;23;20007;-82
2023/07/20 04:09:58;;;;;;;10.75;5.05;;;;;;;13.53;100.00;93033.53;2524290;23;20030;-81
2023/07/20 04:11:09;;;;;;;7.32;5.60;;;;;;;13.45;100.00;93034.97;2523514;23;20007;-81
2023/07/20 04:12:18;;;;;;;8.48;4.50;;;;;;;13.52;100.00;93037.38;2524146;23;20006;-82
2023/07/20 04:13:28;;;;;;;12.40;4.90;;;;;;;13.61;100.00;93037.47;2535910;23;20014;-80
2023/07/20 04:14:37;;;;;;;13.95;5.70;;;;;;;13.65;100.00;93037.34;2546769;23;20180;-81
2023/07/20 04:15:47;;;;;;;10.30;5.18;;;;;;;13.63;100.00;93040.47;2522483;23;20010;-80
2023/07/20 04:17:01;;;;;;;12.63;5.70;;;;;;;13.66;100.00;93050.34;2525881;23;20097;-81
2023/07/20 04:18:13;;;;;;;10.55;5.00;;;;;;;13.63;100.00;93053.91;2522217;23;20006;-81
2023/07/20 04:19:21;;;;;;;7.03;5.15;;;;;;;13.54;100.00;93041.16;2527024;23;20017;-81
2023/07/20 04:20:31;;;;;;;7.80;5.20;;;;;;;13.44;100.00;93042.28;2522269;23;20006;-81
2023/07/20 04:21:44;;;;;;;16.65;5.93;;;;;;;13.39;100.00;93044.75;2501989;23;20321;-82
2023/07/20 04:22:54;;;;;;;10.57;5.18;;;;;;;13.48;100.00;93034.84;2504199;23;20027;-80
2023/07/20 04:24:02;;;;;;;;;;;;;;;13.52;100.00;93046.22;2502894;23;20007;-81
2023/07/20 04:25:08;;;;;;;7.45;5.07;;;;;;;13.49;100.00;93041.72;2524777;23;19991;-80
2023/07/20 04:26:19;;;;;;;9.27;4.95;;;;;;;13.50;100.00;93040.53;2533378;23;20014;-83
2023/07/20 04:27:28;;;;;;;10.20;5.35;;;;;;;13.56;100.00;93046.06;2514777;23;20003;-80
2023/07/20 04:28:47;;;;;;;9.77;4.88;;;;;;;13.50;100.00;93048.56;2523400;23;20069;-82
2023/07/20 04:29:57;;;;;;;9.55;5.53;;;;;;;13.53;100.00;93038.91;2537918;23;20017;-80
2023/07/20 04:31:14;;;;;;;9.80;5.13;;;;;;;13.51;100.00;93036.63;2534632;23;20009;-81
2023/07/20 04:32:26;;;;;;;12.27;5.60;;;;;;;13.45;100.00;93035.72;2525677;23;20425;-82
2023/07/20 04:33:36;;;;;;;13.80;5.20;;;;;;;13.50;100.00;93040.53;2524006;23;20075;-81
2023/07/20 04:34:48;;;;;;;11.65;4.93;;;;;;;13.45;100.00;93037.66;2524763;23;20021;-80
2023/07/20 04:36:07;;;;;;;8.27;5.40;;;;;;;13.49;100.00;93046.34;2524733;23;20002;-80
2023/07/20 04:37:17;;;;;;;12.18;5.00;;;;;;;13.58;100.00;93044.47;2539164;23;20001;-82
2023/07/20 04:38:26;;;;;;;7.80;5.10;;;;;;;13.62;100.00;93044.34;2522127;23;20007;-83
2023/07/20 04:39:35;;;;;;;11.35;5.32;;;;;;;13.69;100.00;93046.03;2526035;23;20081;-80
2023/07/20 04:40:44;;;;;;;15.15;5.60;;;;;;;13.73;100.00;93047.41;2534596;23;20006;-82
2023/07/20 04:41:51;;;;;;;12.63;5.23;;;;;;;13.78;100.00;93038.03;2524099;23;20002;-79
2023/07/20 04:42:59;;;;;;;10.15;5.25;;;;;;;13.93;100.00;93038.28;2523404;23;20394;-80
2023/07/20 04:44:05;;;;;;;10.45;5.43;;;;;;;14.00;100.00;93041.44;2523832;23;20006;-82
2023/07/20 04:45:18;;;;;;;10.55;5.45;;;;;;;14.00;100.00;93035.31;2523816;23;20022;-83
2023/07/20 04:46:29;;;;;;;8.48;5.53;;;;;;;13.97;100.00;93038.91;2513226;23;20652;-83
2023/07/20 04:47:40;;;;;;;10.63;5.32;;;;;;;14.06;100.00;93041.66;2514932;23;20010;-81
2023/07/20 04:48:49;;;;;;;10.10;5.43;;;;;;;14.05;100.00;93043.59;2536180;23;20025;-80
2023/07/20 04:49:57;;;;;;;10.55;5.25;;;;;;;14.04;100.00;93050.13;2534718;23;20371;-84
2023/07/20 04:51:07;;;;;;;13.57;5.10;;;;;;;14.11;100.00;93049.16;2523500;23;20018;-80
2023/07/20 04:52:15;;;;;;;;;;;;;;;14.12;100.00;93042.56;2536960;23;20012;-82
2023/07/20 04:53:21;;;;;;;8.40;5.18;;;;;;;14.09;100.00;93046.91;2522304;23;19984;-81
2023/07/20 04:54:31;;;;;;;12.23;6.20;;;;;;;14.19;100.00;93047.69;2522711;23;20010;-81
2023/07/20 04:55:54;;;;;;;14.68;5.70;;;;;;;14.22;100.00;93049.50;2512100;23;20323;-80
2023/07/20 04:57:05;;;;;;;10.70;5.88;;;;;;;14.19;100.00;93045.00;2531249;23;20001;-81
2023/07/20 04:58:15;;;;;;;9.02;5.30;;;;;;;14.27;100.00;93048.19;2546626;23;20001;-82
2023/07/20 04:59:25;;;;;;;13.35;5.60;;;;;;;14.39;100.00;93043.91;2534195;23;20017;-82
2023/07/20 05:00:36;;;;;;;10.90;5.55;;;;;;;14.47;100.00;93039.75;2525048;23;20010;-81
2023/07/20 05:01:45;;;;;;;13.45;5.80;;;;;;;14.52;100.00;93042.63;2539485;23;20010;-81
2023/07/20 05:02:56;;;;;;;10.35;5.70;;;;;;;14.65;100.00;93036.41;2524424;23;20147;-81
2023/07/20 05:04:04;;;;;;;12.15;5.13;;;;;;;14.76;100.00;93039.47;2503020;23;20145;-81
2023/07/20 05:05:12;;;;;;;;;;;;;;;14.90;100.00;93038.88;2525510;23;20117;-82
2023/07/20 05:06:17;;;;;;;12.70;5.03;;;;;;;14.90;100.00;93038.16;2512138;23;20334;-80
2023/07/20 05:07:28;;;;;;;9.15;5.35;;;;;;;14.93;100.00;93042.66;2512288;23;20022;-82
2023/07/20 05:08:38;;;;;;;14.15;5.57;;;;;;;14.87;100.00;93045.16;2529942;23;20476;-79
2023/07/20 05:09:51;;;;;;;11.40;6.13;;;;;;;14.84;100.00;93043.38;2541538;23;20066;-83
2023/07/20 05:11:01;;;;;;;10.45;5.47;;;;;;;15.01;100.00;93043.84;2525786;23;20017;-82
2023/07/20 05:12:12;;;;;;;10.65;5.75;;;;;;;15.00;100.00;93037.72;2502337;23;20003;-82
2023/07/20 05:13:22;;;;;;;13.35;5.82;;;;;;;14.99;100.00;93038.16;2514275;23;20007;-83
2023/07/20 05:14:34;;;;;;;13.02;5.88;;;;;;;14.94;100.00;93042.19;2536644;23;20061;-84
2023/07/20 05:15:42;;;;;;;9.77;5.65;;;;;;;15.05;100.00;93045.19;2522486;23;20007;-82
2023/07/20 05:16:50;;;;;;;8.77;5.53;;;;;;;15.05;100.00;93042.50;2513409;23;20449;-82
2023/07/20 05:18:00;;;;;;;9.15;5.68;;;;;;;15.29;100.00;93050.78;2510870;23;20117;-84
2023/07/20 05:19:11;;;;;;;13.93;5.65;;;;;;;15.35;100.00;93053.63;2501774;23;20007;-84
2023/07/20 05:20:20;;;;;;;11.73;5.43;;;;;;;15.35;100.00;93045.53;2513492;23;20018;-81
2023/07/20 05:21:30;;;;;;;12.85;5.78;;;;;;;15.39;100.00;93042.72;2523584;23;20002;-82
2023/07/20 05:22:44;;;;;;;13.85;5.55;;;;;;;15.48;100.00;93035.38;2524866;23;20002;-81
2023/07/20 05:23:52;;;;;;;13.37;5.77;;;;;;;15.45;100.00;93039.00;2524450;23;20010;-82
2023/07/20 05:25:02;;;;;;;10.45;5.50;;;;;;;15.37;100.00;93051.25;2523010;23;20009;-82
2023/07/20 05:26:30;;;;;;;17.10;5.88;;;;;;;15.27;100.00;93044.34;2524383;23;20438;-83
2023/07/20 05:27:46;;;;;;;12.07;5.25;;;;;;;15.38;100.00;93036.56;2515057;23;20584;-82
2023/07/20 05:28:57;;;;;;;10.23;5.40;;;;;;;15.49;100.00;93036.13;2503670;23;20011;-82
2023/07/20 05:30:23;;;;;;;14.20;5.57;;;;;;;15.57;100.00;93037.31;2526312;23;20104;-81
2023/07/20 05:31:31;;;;;;;9.15;5.35;;;;;;;15.58;100.00;93036.91;2533125;23;20010;-83
2023/07/20 05:32:42;;;;;;;10.18;5.50;;;;;;;15.59;100.00;93038.38;2511235;23;20034;-85